Terminal Aerodrome Forecast
Issued by NWS Pittsburgh, PA

Home | Current Version | Previous Version | Text Only | Print | Product List | Glossary On
Versions: 1 2 3 4 5 6 7 8 9 10 11 12 13 14 15 16 17 18 19 20 21 22 23 24 25 26 27 28 29 30 31 32 33 34 35 36 37 38 39 40
000
FTUS41 KPBZ 302200 AAC
TAFPIT
TAF AMD
KPIT 302200Z 3022/3124 VRB03KT P6SM BKN025
     FM310000 15003KT P6SM VCTS SCT025 BKN035CB
      TEMPO 3100/3102 5SM SHRA BKN025
     FM310200 VRB02KT P6SM SCT120
     FM310800 00000KT 4SM BR SCT015
     FM311300 23004KT P6SM BKN035=

USA.gov is the U.S. government's official web portal to all federal, state and local government web resources and services.